Terminal Aerodrome Forecast
Issued by NWS

Current Version | Previous Version | Text Only | Print | Product List | Glossary Off
Versions: 1 2 3 4 5 6 7 8 9 10 11 12 13 14 15 16 17 18 19 20 21 22 23 24 25 26 27 28 29 30 31 32 33 34 35 36 37 38 39 40 41 42 43 44 45 46 47

000
FTUS41 KRNK 262149 AAB
TAFLWB
TAF AMD
KLWB 262149Z 2622/2718 30012G22KT 5SM -SHRA SCT015 OVC035
      TEMPO 2622/2623 1SM TSRA BR OVC025CB
     FM270100 31010KT 4SM -SHRA OVC015
     FM270500 30008KT 3SM BR OVC008
     FM270900 31005KT 2SM -RA BR OVC007
     FM271300 32003KT P6SM -RASN SCT007 OVC015=

USA.gov is the U.S. government's official web portal to all federal, state and local government web resources and services.